Laman API Video Percuma Terbaik

AVDBAPI.COM

Cari katalog, semak rekod, dan salin URL API bersih daripada papan pemuka pantas.

Telegram Join Our Telegram Community for Updates!
Today
0
Kemaskini Hari Ini
Censored
314141
Censored Videos
Total
474352
Total Videos

Senarai Video

Rekod terkini disusun mengikut masa kemas kini.

ID Nama CODE Kategori Dikemaskini API
265184 FC2-PPV-4493095 Nogizaka46 Sugawara Hina : Vibrator dimasukkan dan creampie dubur | Gonzo Sakai FC2-PPV-4493095 Tanpa sensor 2025-08-29 04:35:40 API
265183 031220_985 Wanita Kerjaya 031220_985 Tanpa sensor 2025-08-29 04:35:30 API
265182 HEYZO-2599 Saya menyerahkan diri kepada kakak perempuan yang cantik, tapi saya telah melakukan perkara lucah! HEYZO-2599 Tanpa sensor 2025-08-29 04:35:20 API
265181 C0930-KI210418 Tomomi Aiuchi Wanita Cantik Berusia 29 Tahun C0930-KI210418 Tanpa sensor 2025-08-29 04:35:10 API
265180 122915-003 Lori Punggung Mantap ~ Pinggul Nakal Yang Buat Lupa Muka ~ 122915-003 Tanpa sensor 2025-08-29 04:35:00 API
265179 090121-001 [VR] Jom bersama Awahime dan basah lencun dalam buih ghairah! Emi Sakurai 090121-001 Tanpa sensor 2025-08-29 04:34:50 API
265178 H0930-KI211012 Wanita Cantik 35 Tahun Harumi Tanaka H0930-KI211012 Tanpa sensor 2025-08-29 04:34:40 API
265177 NKD-019 Malaikat Telanjang Mami NKD-019-B Tanpa sensor 2025-08-29 04:34:30 API
265176 082020-347 Kura-kura di depan pintu 22 ~ Isteri montok berdada besar yang tidak dapat menahan nafsu syahwatnya ~ 082020-347 Tanpa sensor 2025-08-29 04:34:20 API
265175 HEYZO-2597 Saya akan berikan pai kepada anda bersama Nene Sakura! HEYZO-2597 Tanpa sensor 2025-08-29 04:34:10 API
265174 031420_986 Seks Tanpa Henti Bersama Minori Kawahara 031420_986 Tanpa sensor 2025-08-29 04:34:00 API
265173 021116-498 Merci Beaucoup DV 31 Risa Mizuki's SOAP Soul 021116-498 Tanpa sensor 2025-08-29 04:33:50 API
265172 013021-01 Akhirnya dapat juga menyetubuhi gadis Hotetor popular yang sangat susah nak ditempah 013021-01 Tanpa sensor 2025-08-29 04:33:40 API
265171 090221-001 Buku Gambar Puki Sera Asaka 090221-001 Tanpa sensor 2025-08-29 04:33:30 API
265170 C0930-KI210420 Adik Beradik Tamaki Umur 42 Tahun C0930-KI210420 Tanpa sensor 2025-08-29 04:33:20 API
265168 HEYZO-2618 Misaki - Selepas 3 tahun tak kena kangkang, yang pertama pula pakcik tua HEYZO-2618 Tanpa sensor 2025-08-29 04:33:00 API
265167 FC2-PPV-4493111 Maki (19) Kulit Putih Berseri: Berusaha keras mengeluarkan tiub uji, nampak sangat seksi ketika tiub itu dimasukkan ke dalam faraj dan merakam zakar di dalamnya FC2-PPV-4493111 Tanpa sensor 2025-08-29 04:32:50 API
265166 090321-001 Pavilion Penyembuhan Sofistikated: Nikmati Puting Pic yang Nipis dan Faraj Berbulu Nipis dengan Penyepit 090321-001 Tanpa sensor 2025-08-29 04:32:40 API
265165 082220-348 Isteri curang memburu lelaki perawan 082220-348 Tanpa sensor 2025-08-29 04:32:30 API
265164 031720_987 Seks Tanpa Henti Hiromi Okura 031720_987 Tanpa sensor 2025-08-29 04:32:20 API
265163 H0930-KI211014 Shizue Kihara Wanita 34 Tahun H0930-KI211014 Tanpa sensor 2025-08-29 04:32:10 API
265162 C0930-HITOZUMA1353 Hayae Minami, 26 tahun C0930-HITOZUMA1353 Tanpa sensor 2025-08-29 04:32:00 API
265161 020221-01 Era Seragam ~ Payudara saya masih terus membesar walaupun sudah tamat belajar ~ 020221-01 Tanpa sensor 2025-08-29 04:31:50 API
265160 021116-497 Model S Selamat Datang ke dunia soapland terbaik di dunia 021116-497 Tanpa sensor 2025-08-29 04:31:40 API
265159 HEYZO-2598 Miyu Morita Menantu saya yang bangga dengan tubuh seksinya sedang meniduri ayah saya HEYZO-2598 Tanpa sensor 2025-08-29 04:31:30 API
265158 H4610-KI220403 Fumiho Shimazu 28 Tahun H4610-KI220403 Tanpa sensor 2025-08-29 04:31:20 API
265156 FC2-PPV-4484038 [Pusingan Kedua: Faraj & Ejakulasi] Selepas terpukau dengan rambut hitamnya yang cantik dan payudara G-cup, pusingan kedua diteruskan di sofa dan di atas katil. Rasa sangat puas FC2-PPV-4484038 Tanpa sensor 2025-08-29 04:31:00 API
265155 090421-001 Penjagaan Dewasa ~ Dada Cikgu Terlalu Lembut, Seks Chupachupa yang Sedap Dihisap ~ Honoka Orihara 090421-001 Tanpa sensor 2025-08-29 04:30:50 API
265154 H0930-KI211019 Wanita Seksi 36 Tahun Yukari Kamiya H0930-KI211019 Tanpa sensor 2025-08-29 04:30:40 API
265153 031920_988 Jom bersetubuh dengan dewi Chisato Takayama 031920_988 Tanpa sensor 2025-08-29 04:30:30 API
265152 082520-349 Wanita Dari Zaman Dahulu ~ Tsubaki Kato ~ 082520-349 Tanpa sensor 2025-08-29 04:30:20 API
265151 KB1535 Team Kimura Edisi Khas - KB1535 Tanpa sensor 2025-08-29 04:30:10 API
265149 020321-01 Amatur Tetek Besar Memberi Servis Titfuck dan Blowjob 020321-01 Tanpa sensor 2025-08-29 04:29:50 API
265148 FC2-PPV-4493900 Terus capai 1190 mata!!! FC2-PPV-4493900 Tanpa sensor 2025-08-29 04:29:40 API
265147 H4610-TK0057 Gadis Cantik 21 Tahun Kaori Matsudate H4610-TK0057 Tanpa sensor 2025-08-29 04:29:30 API
265146 H0930-KI211021 Akari Kiribayashi Wanita Seksi Berusia 35 Tahun H0930-KI211021 Tanpa sensor 2025-08-29 04:29:20 API
265145 HEYZO-2600 Chihiro Hinata [Hina Tachihiro] Kebejatan cikgu perempuan - Aku nak kena kencing lagi dengan cikgu ghairah yang dah rampas anak dara aku! HEYZO-2600 Tanpa sensor 2025-08-29 04:29:10 API
265144 032120_989 Tubuh Berisi dan Montok Terus 032120_989 Tanpa sensor 2025-08-29 04:29:00 API
265143 021816-500 Jom pergi ke kolam air panas dengan isteri orang 021816-500 Tanpa sensor 2025-08-29 04:28:50 API
265142 020421-01 Risau sebab buah dada terlalu besar dan bahu rasa lenguh 020421-01 Tanpa sensor 2025-08-29 04:28:40 API
265141 C0930-KI210427 Chisako Shiraishi, gadis 20 tahun yang sangat seksi C0930-KI210427 Tanpa sensor 2025-08-29 04:28:30 API
265139 FC2-PPV-4494694 Saya mengendong dua isteri saya yang langsing pulang, dan mereka terus mengerang nikmat FC2-PPV-4494694 Tanpa sensor 2025-08-29 04:28:10 API
265137 032420 Laku Mai Yamamoto 032420_991 Tanpa sensor 2025-08-29 04:27:50 API
265136 H4610-KI220402 Gold Pack Untuk Gadis 20 Tahun H4610-KI220402 Tanpa sensor 2025-08-29 04:27:40 API
265134 090721-001 Semua Yang Anda Mahu ~ Diakhiri dengan blowjob pembersihan dan 3 kali pancutan dalam faraj berturut-turut ~ Chihiro 090721-001 Tanpa sensor 2025-08-29 04:27:20 API
265133 HEYZO-2603 Asaka Sera [Asaka Sera] Rundingan Fizikal Dengan Si Cantik Berdada Besar Dan Sabun Mewah Vol.2 HEYZO-2603 Tanpa sensor 2025-08-29 04:27:10 API
265132 NKD-021-B Luna Bogel Terdedah NKD-021-B Tanpa sensor 2025-08-29 04:27:00 API
265131 H0930-TK0044 Wanita Cantik 35 Tahun Aimi Higaki H0930-TK0044 Tanpa sensor 2025-08-29 04:26:50 API
265130 FC2-PPV-4492869 Tubuh langsing, muka kecil yang mempesona, dan kulit sawo matang yang menggoda! Pengalaman seksi yang tidak dapat ditolak! *Kualiti Tinggi FC2-PPV-4492869 Tanpa sensor 2025-08-29 04:26:40 API
265129 020621-01 Muka penuh air mani yang sangat lucah dan amat mesum 020621-01 Tanpa sensor 2025-08-29 04:26:30 API